KANJ

Details ICAO KANJ
Name SAULT STE MARIE MUNI SANDERSON FLD
Region United States
Timezone America/Detroit (UTC-5.0)
Plans Departing 4
Arriving 4
Stats Elevation 716 ft / 218 m (AMSL)
Location 46.479207° -84.368410°
Runways 1
Magnetic Variation 7.506° W
Sunrise 2017-12-13 13:14:31 UTC / 2017-12-13 08:14:31 Local
Sunset 2017-12-13 21:51:53 UTC / 2017-12-13 16:51:53 Local
Advertisement - Login to hide

Runways

ID Width Length Bearing (true) Bearing (mag) Surface Threshold Offset Overrun Length
14 100 ft / 30 m 5,231 ft / 1,594 m 135.98° 143.49° Asphalt 180 ft / 55 m 0 ft / 0 m
32 100 ft / 30 m 5,231 ft / 1,594 m 315.99° 323.50° Asphalt 435 ft / 133 m 0 ft / 0 m

Map

Weather


0- 5 10 15 20 25 30 35+ Temperature / ° C

Clouds and Precipitation
Forecast for 2017-12-13 18:00 UTC. Updated 23 minutes ago

Ground ~20,000 ft ~40,000 ft Winds

METAR

KANJ 131655Z AUTO 00000KT 10SM CLR M16/M19 A2972 RMK AO2 UPB34E44 SLP083 P0000 T11611194

TAF

Not found

Frequencies

Recorded 118.37 MHz ASOS
Unicom 122.70 MHz CTAF/UNICOM
Warning: Do not use this data for real-world aviation or navigation. No guarantee of current accuracy is given.